Time;durP1;ratioP1;P1;durP2;ratioP2;P2;SDS_P1;SDS_P2;PMS_P1;PMS_P2;Temp;Humidity;BMP_temperature;BMP_pressure;BME280_temperature;BME280_humidity;BME280_pressure;Samples;Min_cycle;Max_cycle;Signal;HPM_P1;HPM_P2
2021/05/29 00:01:40;;;;;;;4.60;3.38;;;13.30;97.30;;;;;;6190295;28;20441;-78
2021/05/29 00:04:41;;;;;;;6.90;4.07;;;13.20;97.20;;;;;;6153795;28;20037;-80
2021/05/29 00:07:42;;;;;;;4.13;3.45;;;13.30;96.60;;;;;;6153307;28;20109;-80
2021/05/29 00:10:44;;;;;;;4.43;3.22;;;13.40;96.70;;;;;;6171722;28;20031;-79
2021/05/29 00:13:45;;;;;;;5.13;3.50;;;13.40;96.70;;;;;;6128512;28;20334;-80
2021/05/29 00:16:46;;;;;;;5.30;3.53;;;13.40;99.90;;;;;;6153050;28;20098;-79
2021/05/29 00:19:46;;;;;;;3.83;3.50;;;13.40;99.90;;;;;;6170459;28;20033;-79
2021/05/29 00:22:47;;;;;;;5.18;3.38;;;13.50;96.40;;;;;;6170414;28;20448;-79
2021/05/29 00:25:48;;;;;;;5.35;3.92;;;13.40;99.90;;;;;;6170168;28;20035;-80
2021/05/29 00:28:49;;;;;;;5.03;3.40;;;13.40;95.70;;;;;;6152645;28;20038;-79
2021/05/29 00:31:49;;;;;;;5.00;3.42;;;13.50;99.90;;;;;;6153047;28;20034;-80
2021/05/29 00:34:50;;;;;;;3.55;3.25;;;13.60;97.30;;;;;;6168817;28;20039;-79
2021/05/29 00:37:50;;;;;;;4.55;3.35;;;13.30;97.80;;;;;;6152746;28;20102;-80
2021/05/29 00:40:51;;;;;;;5.88;3.67;;;13.30;98.30;;;;;;6170025;28;20130;-80
2021/05/29 00:43:52;;;;;;;3.90;3.20;;;13.10;99.90;;;;;;6170282;28;20039;-80
2021/05/29 00:46:52;;;;;;;4.13;3.22;;;12.90;99.90;;;;;;6152182;28;20393;-81
2021/05/29 00:49:53;;;;;;;4.30;3.10;;;;;;;;;;6170064;28;20031;-79
2021/05/29 00:52:54;;;;;;;4.00;3.47;;;12.80;99.90;;;;;;6153015;28;20074;-81
2021/05/29 00:55:56;;;;;;;4.88;4.03;;;12.80;99.90;;;;;;6152527;28;20034;-80
2021/05/29 00:58:56;;;;;;;4.65;3.60;;;12.80;99.90;;;;;;6140454;28;20122;-80
2021/05/29 01:01:57;;;;;;;3.85;3.35;;;12.90;99.90;;;;;;6153647;28;20386;-79
2021/05/29 01:04:57;;;;;;;3.58;3.20;;;12.80;99.90;;;;;;6174454;28;20039;-79
2021/05/29 01:07:58;;;;;;;5.10;3.72;;;;;;;;;;6174644;28;20647;-80
2021/05/29 01:10:59;;;;;;;4.22;3.72;;;;;;;;;;6174554;28;20035;-80
2021/05/29 01:14:02;;;;;;;3.80;3.50;;;;;;;;;;6161367;28;20405;-80
2021/05/29 01:17:03;;;;;;;5.68;3.55;;;12.90;99.90;;;;;;6184042;28;20133;-80
2021/05/29 01:20:05;;;;;;;5.03;3.42;;;13.10;99.90;;;;;;6164196;28;20056;-80
2021/05/29 01:23:07;;;;;;;4.82;3.72;;;;;;;;;;6180450;28;20157;-80
2021/05/29 01:26:08;;;;;;;6.55;3.80;;;;;;;;;;6180696;28;20775;-80
2021/05/29 01:29:09;;;;;;;3.60;3.20;;;;;;;;;;6165646;28;20030;-80
2021/05/29 01:32:09;;;;;;;3.65;3.33;;;13.20;99.90;;;;;;6157096;28;20027;-81
2021/05/29 01:35:11;;;;;;;4.40;3.78;;;13.00;99.90;;;;;;6179628;28;20037;-80
2021/05/29 01:38:13;;;;;;;3.80;3.50;;;13.10;97.00;;;;;;6148525;28;20034;-81
2021/05/29 01:41:14;;;;;;;;;;;12.90;99.90;;;;;;6180275;28;20023;-80
2021/05/29 01:44:14;;;;;;;4.25;3.83;;;13.10;99.90;;;;;;6172550;28;19921;-80
2021/05/29 01:47:15;;;;;;;5.05;4.05;;;13.20;96.80;;;;;;6163632;28;20520;-80
2021/05/29 01:50:16;;;;;;;5.47;4.25;;;13.00;96.80;;;;;;6197074;28;20113;-81
2021/05/29 01:53:18;;;;;;;6.53;4.05;;;13.00;97.70;;;;;;6179706;28;20034;-79
2021/05/29 01:56:19;;;;;;;3.90;3.50;;;12.80;97.70;;;;;;6163526;28;20073;-79
2021/05/29 01:59:19;;;;;;;4.10;3.70;;;12.80;97.90;;;;;;6179840;28;20400;-81
2021/05/29 02:02:20;;;;;;;5.57;3.83;;;13.00;98.00;;;;;;6197163;28;20034;-79
2021/05/29 02:05:22;;;;;;;4.68;3.92;;;13.10;98.20;;;;;;6186100;28;20643;-80
2021/05/29 02:08:22;;;;;;;5.07;4.05;;;12.60;98.40;;;;;;6173542;28;20038;-79
2021/05/29 02:11:23;;;;;;;4.85;3.90;;;12.40;99.40;;;;;;6140407;28;20121;-79
2021/05/29 02:14:24;;;;;;;6.35;3.92;;;12.40;99.90;;;;;;6139772;28;20039;-79
2021/05/29 02:17:24;;;;;;;4.90;4.28;;;12.40;99.80;;;;;;6156263;28;20086;-80
2021/05/29 02:20:31;;;;;;;4.70;4.00;;;12.80;99.70;;;;;;6173378;28;20043;-79
2021/05/29 02:23:35;;;;;;;5.50;4.40;;;12.40;99.20;;;;;;6156316;28;20035;-81
2021/05/29 02:26:36;;;;;;;6.63;4.35;;;12.40;97.80;;;;;;6156002;28;20129;-79
2021/05/29 02:29:36;;;;;;;5.97;4.15;;;12.30;99.90;;;;;;6171630;28;20031;-79
2021/05/29 02:32:37;;;;;;;5.15;4.15;;;12.40;99.20;;;;;;6182301;28;20065;-80
2021/05/29 02:35:38;;;;;;;5.22;4.03;;;12.20;99.90;;;;;;6172907;28;20042;-80
2021/05/29 02:38:38;;;;;;;5.28;3.90;;;12.30;99.40;;;;;;6155693;28;20037;-79
2021/05/29 02:41:39;;;;;;;4.68;3.55;;;12.40;99.90;;;;;;6155396;28;20038;-80
2021/05/29 02:44:39;;;;;;;6.50;3.85;;;12.30;99.90;;;;;;6184081;28;20457;-79
2021/05/29 02:47:40;;;;;;;4.07;3.65;;;12.40;99.90;;;;;;6178554;28;20084;-79
2021/05/29 02:50:41;;;;;;;4.20;3.53;;;12.40;99.90;;;;;;6195853;28;20049;-80
2021/05/29 02:53:43;;;;;;;4.88;3.63;;;12.80;98.50;;;;;;6162389;28;20449;-80
2021/05/29 02:56:43;;;;;;;3.88;3.47;;;12.10;98.30;;;;;;6196207;28;20030;-80
2021/05/29 02:59:44;;;;;;;9.63;3.80;;;12.30;99.10;;;;;;6158103;28;20050;-80
2021/05/29 03:02:44;;;;;;;4.85;3.95;;;12.30;99.50;;;;;;6154767;28;20061;-80
2021/05/29 03:05:47;;;;;;;4.88;3.80;;;12.20;99.40;;;;;;6155049;28;20061;-79
2021/05/29 03:08:47;;;;;;;4.25;3.65;;;12.20;99.00;;;;;;6154325;28;20482;-80
2021/05/29 03:11:48;;;;;;;4.05;3.53;;;12.20;99.10;;;;;;6154469;28;20122;-79
2021/05/29 03:14:48;;;;;;;4.47;3.65;;;12.20;99.20;;;;;;6122688;28;20035;-80
2021/05/29 03:17:49;;;;;;;4.25;3.75;;;11.90;99.90;;;;;;6154214;28;20141;-78
2021/05/29 03:20:50;;;;;;;4.88;3.70;;;12.10;99.60;;;;;;6154466;28;20032;-79
2021/05/29 03:23:50;;;;;;;6.35;4.20;;;12.00;99.90;;;;;;6176798;28;20066;-80
2021/05/29 03:26:51;;;;;;;5.68;4.22;;;12.10;99.90;;;;;;6177311;28;20046;-79
2021/05/29 03:29:52;;;;;;;4.63;3.80;;;12.20;99.90;;;;;;6177600;28;20085;-81
2021/05/29 03:32:52;;;;;;;5.28;3.97;;;11.90;99.90;;;;;;6177298;28;20039;-79
2021/05/29 03:35:53;;;;;;;4.90;4.40;;;11.70;99.90;;;;;;6177332;28;20037;-79
2021/05/29 03:38:54;;;;;;;4.45;4.03;;;11.70;99.90;;;;;;6178031;28;20036;-79
2021/05/29 03:41:54;;;;;;;23.80;16.83;;;11.90;99.90;;;;;;6148530;28;20031;-79
2021/05/29 03:44:55;;;;;;;5.22;4.72;;;11.70;99.90;;;;;;6175916;28;20042;-79
2021/05/29 03:47:55;;;;;;;5.72;4.53;;;11.70;99.90;;;;;;6161323;28;20022;-78
2021/05/29 03:50:57;;;;;;;5.38;4.80;;;;;;;;;;6177375;28;20488;-80
2021/05/29 03:53:57;;;;;;;6.10;5.50;;;11.70;98.30;;;;;;6175172;28;20034;-80
2021/05/29 03:56:58;;;;;;;6.20;4.93;;;11.80;99.90;;;;;;6154018;28;20111;-79
2021/05/29 03:59:58;;;;;;;4.72;4.03;;;11.80;99.90;;;;;;6171144;28;20499;-79
2021/05/29 04:02:59;;;;;;;5.32;4.75;;;11.80;99.90;;;;;;6137569;28;20031;-80
2021/05/29 04:06:00;;;;;;;4.95;4.43;;;11.80;99.90;;;;;;6137364;28;20069;-79
2021/05/29 04:09:01;;;;;;;5.13;4.45;;;12.20;99.90;;;;;;6153407;28;20030;-78
2021/05/29 04:12:02;;;;;;;7.45;4.68;;;11.80;99.90;;;;;;6153479;28;20034;-79
2021/05/29 04:15:04;;;;;;;6.00;5.10;;;11.80;99.90;;;;;;6160390;28;20061;-81
2021/05/29 04:18:05;;;;;;;8.40;5.00;;;11.80;99.90;;;;;;6154428;28;20062;-79
2021/05/29 04:21:05;;;;;;;7.22;4.38;;;11.80;99.90;;;;;;6160632;28;20445;-80
2021/05/29 04:24:06;;;;;;;5.00;4.50;;;12.30;99.90;;;;;;6192478;28;20066;-79
2021/05/29 04:27:07;;;;;;;5.78;4.57;;;11.80;99.60;;;;;;6192718;28;20038;-79
2021/05/29 04:30:09;;;;;;;5.22;4.10;;;11.90;99.90;;;;;;6160121;28;20499;-80
2021/05/29 04:33:10;;;;;;;;;;;12.00;99.00;;;;;;6194194;28;20116;-80
2021/05/29 04:36:11;;;;;;;6.45;4.78;;;12.10;99.90;;;;;;6176456;28;19910;-80
2021/05/29 04:39:11;;;;;;;5.88;4.43;;;12.10;99.90;;;;;;6177675;28;20085;-79
2021/05/29 04:42:12;;;;;;;5.30;4.35;;;12.30;99.90;;;;;;6175405;28;20031;-79
2021/05/29 04:45:13;;;;;;;6.13;4.55;;;11.90;99.90;;;;;;6158456;28;20045;-80
2021/05/29 04:48:14;;;;;;;10.57;4.68;;;;;;;;;;6158161;28;20145;-79
2021/05/29 04:51:15;;;;;;;4.68;4.28;;;12.50;99.90;;;;;;6158288;28;20023;-79
2021/05/29 04:54:16;;;;;;;5.47;4.40;;;12.20;99.90;;;;;;6158285;28;20370;-80
2021/05/29 04:57:17;;;;;;;5.90;5.20;;;;;;;;;;6176535;28;20026;-80
2021/05/29 05:00:18;;;;;;;4.32;3.92;;;;;;;;;;6198789;28;20026;-80
2021/05/29 05:03:19;;;;;;;4.90;4.38;;;12.50;99.90;;;;;;6180436;28;20034;-80
2021/05/29 05:06:20;;;;;;;6.05;4.38;;;;;;;;;;6164891;28;20481;-80
2021/05/29 05:09:21;;;;;;;5.20;4.45;;;;;;;;;;6198134;28;20034;-81
2021/05/29 05:12:22;;;;;;;5.20;4.28;;;12.60;99.90;;;;;;6180877;28;20030;-81
2021/05/29 05:15:23;;;;;;;4.70;3.80;;;;;;;;;;6180974;28;20065;-79
2021/05/29 05:18:24;;;;;;;6.57;3.65;;;12.80;99.90;;;;;;6191917;28;20104;-81
2021/05/29 05:21:24;;;;;;;4.28;3.78;;;12.80;99.90;;;;;;6173377;28;20038;-80
2021/05/29 05:24:25;;;;;;;6.75;4.75;;;12.90;97.90;;;;;;6180749;28;20038;-80
2021/05/29 05:27:26;;;;;;;5.65;3.30;;;13.00;97.60;;;;;;6180197;28;20465;-80
2021/05/29 05:30:27;;;;;;;4.25;3.80;;;13.20;98.10;;;;;;6173309;28;20027;-79
2021/05/29 05:33:28;;;;;;;5.38;3.85;;;;;;;;;;6157199;28;20041;-80
2021/05/29 05:36:29;;;;;;;4.70;3.67;;;13.20;95.70;;;;;;6156854;28;20039;-79
2021/05/29 05:39:30;;;;;;;4.93;3.70;;;;;;;;;;6156885;28;20034;-80
2021/05/29 05:42:30;;;;;;;5.10;4.35;;;13.20;99.90;;;;;;6174218;28;20033;-79
2021/05/29 05:45:31;;;;;;;4.40;3.90;;;13.50;97.80;;;;;;6157227;28;20039;-80
2021/05/29 05:48:32;;;;;;;5.10;4.18;;;13.40;97.70;;;;;;6173989;28;20362;-80
2021/05/29 05:51:33;;;;;;;4.57;3.75;;;13.40;97.90;;;;;;6181810;28;20029;-80
2021/05/29 05:54:34;;;;;;;7.07;3.97;;;13.50;98.40;;;;;;6179967;28;20461;-80
2021/05/29 05:57:34;;;;;;;5.63;3.60;;;13.60;97.30;;;;;;6179509;28;20117;-80
2021/05/29 06:00:35;;;;;;;4.25;3.85;;;13.80;97.40;;;;;;6180173;28;20046;-80
2021/05/29 06:03:36;;;;;;;7.03;3.80;;;13.60;97.20;;;;;;6163389;28;20034;-80
2021/05/29 06:06:36;;;;;;;3.78;3.47;;;13.80;97.20;;;;;;6197040;28;20045;-79
2021/05/29 06:09:37;;;;;;;6.10;3.55;;;13.90;96.60;;;;;;6197297;28;20049;-79
2021/05/29 06:12:42;;;;;;;4.82;3.60;;;13.90;96.80;;;;;;6196705;28;20041;-78
2021/05/29 06:22:02;;;;;;;4.13;3.67;;;14.10;99.90;;;;;;6179474;28;20089;-81
2021/05/29 06:25:04;;;;;;;4.13;3.60;;;14.30;95.20;;;;;;6178807;28;20586;-80
2021/05/29 06:28:05;;;;;;;3.63;3.33;;;14.50;99.90;;;;;;6157035;28;20030;-81
2021/05/29 06:31:07;;;;;;;7.03;3.70;;;14.40;95.20;;;;;;6171955;28;20034;-79
2021/05/29 06:34:08;;;;;;;5.00;3.67;;;;;;;;;;6179036;28;20043;-80
2021/05/29 06:37:09;;;;;;;3.67;3.30;;;14.40;93.50;;;;;;6194619;28;20045;-80
2021/05/29 06:40:09;;;;;;;4.00;3.60;;;14.50;94.70;;;;;;6155510;28;20105;-80
2021/05/29 06:43:10;;;;;;;4.05;3.17;;;14.70;99.90;;;;;;6171608;28;20146;-80
2021/05/29 06:46:11;;;;;;;7.63;4.13;;;14.60;94.20;;;;;;6172987;28;20043;-80
2021/05/29 06:49:13;;;;;;;4.07;3.55;;;14.80;93.80;;;;;;6155664;28;20773;-79
2021/05/29 06:52:16;;;;;;;3.85;3.45;;;;;;;;;;6171742;28;20532;-79
2021/05/29 06:58:47;;;;;;;4.85;3.55;;;15.00;99.90;;;;;;6141196;28;20409;-78
2021/05/29 07:01:47;;;;;;;5.20;3.70;;;15.10;93.50;;;;;;6170570;28;20039;-80
2021/05/29 07:04:50;;;;;;;7.68;6.63;;;15.30;93.10;;;;;;6182913;28;20444;-81
2021/05/29 07:07:51;;;;;;;4.05;3.13;;;15.90;91.90;;;;;;6191739;28;20049;-81
2021/05/29 07:10:52;;;;;;;3.78;3.17;;;16.40;98.20;;;;;;6176493;28;20035;-79
2021/05/29 07:13:52;;;;;;;3.75;3.33;;;16.30;90.70;;;;;;6195565;28;20160;-79
2021/05/29 07:16:53;;;;;;;3.40;3.10;;;16.60;89.30;;;;;;6194846;28;20136;-80
2021/05/29 07:19:54;;;;;;;4.75;3.42;;;17.20;84.80;;;;;;6162047;28;20113;-79
2021/05/29 07:22:54;;;;;;;5.15;2.97;;;18.20;83.90;;;;;;6177767;28;20023;-79
2021/05/29 07:25:55;;;;;;;5.05;3.30;;;18.90;82.50;;;;;;6177586;28;20046;-78
2021/05/29 07:28:56;;;;;;;6.72;3.25;;;19.60;76.00;;;;;;6177762;28;20030;-78
2021/05/29 07:31:56;;;;;;;3.70;3.10;;;20.10;74.80;;;;;;6194981;28;20631;-78
2021/05/29 07:34:57;;;;;;;4.40;3.13;;;20.30;72.10;;;;;;6194644;28;20587;-80
2021/05/29 07:37:58;;;;;;;7.07;3.35;;;21.10;71.20;;;;;;6153927;28;20031;-77
2021/05/29 07:40:59;;;;;;;4.53;2.72;;;;;;;;;;6173777;28;20030;-79
2021/05/29 07:43:59;;;;;;;5.70;3.88;;;22.60;63.00;;;;;;6171580;28;20503;-78
2021/05/29 07:47:00;;;;;;;5.78;3.08;;;22.50;62.30;;;;;;6167719;28;20050;-80
2021/05/29 07:50:03;;;;;;;5.53;3.53;;;22.70;60.90;;;;;;6160890;28;20054;-82
2021/05/29 07:53:04;;;;;;;5.10;3.20;;;22.50;60.60;;;;;;6177178;28;20045;-82
2021/05/29 07:56:06;;;;;;;3.70;3.13;;;22.40;86.40;;;;;;6177175;28;20463;-82
2021/05/29 07:59:10;;;;;;;4.65;3.28;;;21.90;89.40;;;;;;6177105;28;20465;-81
2021/05/29 08:02:11;;;;;;;4.00;3.25;;;21.80;87.90;;;;;;6181370;28;20400;-82
2021/05/29 08:05:18;;;;;;;3.50;3.20;;;22.20;90.00;;;;;;6180711;28;20037;-81
2021/05/29 08:08:19;;;;;;;6.10;3.08;;;22.80;91.00;;;;;;6177974;28;20034;-82
2021/05/29 08:11:23;;;;;;;3.65;2.92;;;22.90;59.90;;;;;;6187513;28;20082;-82
2021/05/29 08:14:24;;;;;;;3.20;2.90;;;22.60;85.10;;;;;;6137682;28;20413;-81
2021/05/29 08:17:24;;;;;;;4.85;3.10;;;22.30;70.70;;;;;;6153148;28;20109;-81
2021/05/29 08:20:25;;;;;;;4.05;3.00;;;21.80;90.60;;;;;;6152981;28;20367;-83
2021/05/29 08:23:26;;;;;;;3.08;2.75;;;21.90;75.30;;;;;;6152878;28;20038;-82
2021/05/29 08:26:27;;;;;;;3.00;2.70;;;22.30;88.80;;;;;;6153545;28;20098;-80
2021/05/29 08:29:27;;;;;;;4.72;3.63;;;22.50;74.20;;;;;;6164285;28;20070;-83
2021/05/29 08:32:28;;;;;;;3.55;2.95;;;;;;;;;;6160200;28;20073;-81
2021/05/29 08:35:29;;;;;;;5.82;3.40;;;;;;;;;;6176773;28;20038;-81
2021/05/29 08:38:30;;;;;;;4.45;3.00;;;;;;;;;;6194345;28;20034;-81
2021/05/29 08:41:31;;;;;;;4.20;2.90;;;23.80;83.30;;;;;;6176334;28;20113;-81
2021/05/29 08:44:32;;;;;;;4.05;2.80;;;23.70;82.00;;;;;;6160065;28;20030;-81
2021/05/29 08:47:33;;;;;;;4.82;2.83;;;24.10;82.30;;;;;;6160386;28;20068;-81
2021/05/29 08:50:34;;;;;;;3.67;2.72;;;24.00;80.80;;;;;;6176282;28;20432;-81
2021/05/29 08:53:34;;;;;;;7.32;3.00;;;24.10;63.90;;;;;;6160370;28;20034;-81
2021/05/29 08:56:35;;;;;;;3.78;2.75;;;23.70;53.80;;;;;;6176067;28;20031;-80
2021/05/29 08:59:35;;;;;;;5.80;2.85;;;23.50;53.20;;;;;;6160424;28;20034;-81
2021/05/29 09:02:56;;;;;;;3.00;2.33;;;23.50;52.60;;;;;;6193620;28;20089;-81
2021/05/29 09:05:57;;;;;;;2.53;2.33;;;23.90;52.60;;;;;;6159895;28;20043;-81
2021/05/29 09:08:59;;;;;;;5.50;2.67;;;24.40;52.60;;;;;;6153136;28;20042;-81
2021/05/29 09:12:03;;;;;;;;;;;25.50;49.10;;;;;;6153362;28;20118;-77
2021/05/29 09:15:04;;;;;;;2.97;2.40;;;25.60;62.00;;;;;;6190855;28;19916;-78
2021/05/29 09:18:05;;;;;;;2.53;2.30;;;25.50;47.60;;;;;;6178007;28;20082;-78
2021/05/29 09:21:21;;;;;;;6.32;2.47;;;25.20;47.00;;;;;;6168909;28;20035;-79
2021/05/29 09:24:22;;;;;;;4.53;2.70;;;25.00;47.80;;;;;;6173965;28;20064;-77
2021/05/29 09:27:22;;;;;;;4.27;2.53;;;24.50;50.00;;;;;;6189166;28;20042;-77
2021/05/29 09:30:50;;;;;;;3.90;2.43;;;25.20;48.50;;;;;;6196054;28;20085;-77
2021/05/29 09:33:51;;;;;;;4.00;2.40;;;25.90;47.20;;;;;;6174502;28;20425;-79
2021/05/29 09:37:00;;;;;;;3.93;2.47;;;26.00;44.80;;;;;;6173041;28;20114;-78
2021/05/29 09:40:07;;;;;;;6.03;3.05;;;26.40;45.00;;;;;;6173844;28;20023;-78
2021/05/29 09:43:08;;;;;;;2.40;2.20;;;26.30;46.20;;;;;;6173245;28;20058;-78
2021/05/29 09:46:09;;;;;;;3.77;2.50;;;26.80;45.50;;;;;;6173863;28;20126;-78
2021/05/29 09:49:09;;;;;;;2.67;2.43;;;27.10;42.80;;;;;;6190901;28;20281;-78
2021/05/29 09:52:36;;;;;;;3.23;2.47;;;27.10;43.50;;;;;;6194997;28;20035;-78
2021/05/29 09:55:37;;;;;;;2.67;2.20;;;26.10;47.90;;;;;;6175996;28;20034;-78
2021/05/29 09:58:59;;;;;;;4.22;2.40;;;25.50;48.90;;;;;;6172933;28;20170;-77
2021/05/29 10:02:00;;;;;;;3.00;2.47;;;25.50;51.20;;;;;;6189019;28;20038;-78
2021/05/29 10:05:01;;;;;;;5.50;2.75;;;25.10;49.90;;;;;;6172349;28;20118;-80
2021/05/29 10:08:05;;;;;;;2.63;2.30;;;25.60;49.40;;;;;;6172286;28;20051;-79
2021/05/29 10:11:06;;;;;;;4.40;2.30;;;26.50;50.10;;;;;;6173866;28;20114;-76
2021/05/29 10:14:07;;;;;;;2.67;2.17;;;25.90;49.00;;;;;;6171688;28;20035;-77
2021/05/29 10:17:12;;;;;;;3.87;2.80;;;25.80;47.60;;;;;;6172196;28;20282;-78
2021/05/29 10:20:13;;;;;;;2.13;2.00;;;26.10;48.80;;;;;;6171636;28;20470;-77
2021/05/29 10:23:14;;;;;;;4.93;2.45;;;26.10;48.00;;;;;;6173391;28;20026;-77
2021/05/29 10:26:15;;;;;;;2.30;2.10;;;25.60;48.80;;;;;;6171857;28;20481;-77
2021/05/29 10:29:25;;;;;;;2.40;2.20;;;24.30;49.10;;;;;;6171929;28;20034;-77
2021/05/29 10:32:26;;;;;;;2.35;2.15;;;23.60;46.60;;;;;;6171873;28;20262;-76
2021/05/29 10:35:34;;;;;;;3.00;2.40;;;23.20;52.50;;;;;;6172701;28;20034;-77
2021/05/29 10:38:45;;;;;;;2.40;2.20;;;22.80;55.70;;;;;;6173184;28;20031;-77
2021/05/29 10:41:48;;;;;;;3.10;2.22;;;23.00;53.20;;;;;;6180444;28;20575;-78
2021/05/29 10:44:49;;;;;;;2.97;2.40;;;24.80;52.00;;;;;;6175788;28;20065;-80
2021/05/29 10:48:08;;;;;;;3.53;2.50;;;23.40;65.60;;;;;;6194927;28;20090;-80
2021/05/29 10:51:12;;;;;;;2.95;2.20;;;23.40;47.90;;;;;;6171653;28;20038;-78
2021/05/29 10:54:13;;;;;;;2.38;2.17;;;23.60;48.00;;;;;;6171712;28;20186;-79
2021/05/29 10:57:14;;;;;;;2.60;2.28;;;23.80;50.50;;;;;;6171226;28;20499;-78
2021/05/29 11:00:33;;;;;;;2.38;2.13;;;23.90;51.30;;;;;;6171477;28;20035;-78
2021/05/29 11:03:44;;;;;;;2.40;2.20;;;23.90;49.80;;;;;;6172600;28;20045;-83
2021/05/29 11:06:54;;;;;;;2.40;2.20;;;24.10;52.10;;;;;;6171561;28;20136;-79
2021/05/29 11:09:56;;;;;;;4.50;2.72;;;24.20;66.90;;;;;;6177364;28;20077;-78
2021/05/29 11:12:57;;;;;;;2.45;2.25;;;24.40;49.90;;;;;;6195227;28;20027;-79
2021/05/29 11:15:58;;;;;;;2.67;2.25;;;24.40;49.20;;;;;;6159178;28;20038;-78
2021/05/29 11:19:15;;;;;;;2.20;2.00;;;24.30;66.30;;;;;;6195593;28;20177;-83
2021/05/29 11:22:18;;;;;;;2.30;2.10;;;24.40;50.40;;;;;;6161949;28;20042;-82
2021/05/29 11:25:23;;;;;;;3.72;2.42;;;24.30;51.40;;;;;;6177866;28;20065;-80
2021/05/29 12:41:39;;;;;;;2.50;2.30;;;22.00;70.60;;;;;;6320163;27;20156;-76
2021/05/29 12:44:50;;;;;;;2.47;2.28;;;22.60;63.20;;;;;;6332314;28;20381;-77
2021/05/29 12:47:55;;;;;;;2.63;2.40;;;23.40;77.40;;;;;;6338983;28;20031;-77
2021/05/29 12:54:05;;;;;;;3.08;2.47;;;23.60;58.60;;;;;;6315493;28;20060;-77
2021/05/29 12:57:06;;;;;;;4.93;2.72;;;24.40;75.70;;;;;;6336306;28;20032;-78
2021/05/29 13:00:47;;;;;;;10.30;3.03;;;24.80;76.60;;;;;;6320186;28;20529;-75
2021/05/29 13:07:26;;;;;;;5.15;2.83;;;24.60;72.30;;;;;;6314526;28;20115;-79
2021/05/29 13:10:37;;;;;;;2.92;2.60;;;24.40;41.50;;;;;;6312793;28;20085;-77
2021/05/29 13:13:57;;;;;;;3.90;2.47;;;23.30;59.60;;;;;;6328974;28;20034;-77
2021/05/29 13:16:59;;;;;;;2.67;2.40;;;23.30;43.60;;;;;;6324469;28;20028;-77
2021/05/29 13:20:04;;;;;;;;;;;23.40;46.30;;;;;;6322190;28;20047;-76
2021/05/29 13:23:05;;;;;;;3.25;2.25;;;23.40;73.00;;;;;;6315037;28;19908;-77
2021/05/29 13:26:06;;;;;;;2.28;2.08;;;23.20;75.60;;;;;;6314580;28;20035;-75
2021/05/29 13:29:07;;;;;;;3.42;2.53;;;23.00;74.10;;;;;;6338387;28;20028;-76
2021/05/29 13:32:11;;;;;;;2.70;2.40;;;;;;;;;;6338148;28;20032;-77
2021/05/29 13:35:11;;;;;;;2.90;2.58;;;23.10;77.70;;;;;;6338574;28;20378;-76
2021/05/29 13:38:12;;;;;;;2.60;2.40;;;;;;;;;;6337712;28;20111;-78
2021/05/29 13:41:13;;;;;;;5.40;2.50;;;23.00;78.00;;;;;;6337856;28;20063;-76
2021/05/29 13:44:14;;;;;;;3.65;2.40;;;;;;;;;;6325855;28;20108;-77
2021/05/29 13:47:15;;;;;;;3.47;2.60;;;23.10;57.50;;;;;;6314367;28;20465;-75
2021/05/29 13:50:16;;;;;;;2.92;2.20;;;22.60;46.00;;;;;;6311109;28;20033;-77
2021/05/29 13:53:17;;;;;;;3.23;2.63;;;22.60;45.10;;;;;;6299317;28;20056;-76
2021/05/29 13:56:17;;;;;;;2.33;2.13;;;22.90;44.50;;;;;;6319443;28;20082;-76
2021/05/29 13:59:18;;;;;;;2.70;2.50;;;23.20;45.70;;;;;;6320206;28;20363;-78
2021/05/29 14:02:19;;;;;;;5.57;2.53;;;23.30;42.00;;;;;;6321116;28;20039;-74
2021/05/29 14:05:19;;;;;;;2.67;2.15;;;23.30;45.20;;;;;;6318967;28;20393;-76
2021/05/29 14:08:20;;;;;;;3.60;2.53;;;23.70;44.60;;;;;;6320014;28;20073;-76
2021/05/29 14:11:25;;;;;;;2.67;2.17;;;23.90;45.70;;;;;;6319727;28;20028;-77
2021/05/29 14:14:25;;;;;;;3.22;2.65;;;24.30;41.50;;;;;;6320073;28;20478;-77
2021/05/29 14:17:26;;;;;;;3.93;2.80;;;24.60;41.80;;;;;;6319997;28;20030;-78
2021/05/29 14:20:27;;;;;;;3.27;2.57;;;24.50;38.50;;;;;;6320014;28;20044;-74
2021/05/29 14:23:27;;;;;;;4.07;2.30;;;24.60;41.20;;;;;;6320009;28;20470;-77
2021/05/29 14:26:31;;;;;;;12.10;3.07;;;24.60;41.40;;;;;;6315747;28;20032;-76
2021/05/29 14:29:32;;;;;;;3.58;2.28;;;24.40;41.40;;;;;;6303801;28;20466;-75
2021/05/29 14:32:32;;;;;;;3.63;2.80;;;24.30;41.70;;;;;;6296146;28;20036;-77
2021/05/29 14:35:33;;;;;;;3.17;2.43;;;23.70;43.80;;;;;;6294550;28;20028;-83
2021/05/29 14:38:34;;;;;;;3.37;2.30;;;23.60;42.20;;;;;;6276212;28;20827;-80
2021/05/29 14:41:34;;;;;;;2.90;2.60;;;24.10;58.00;;;;;;6310835;28;20029;-80
2021/05/29 14:44:35;;;;;;;2.80;2.10;;;23.30;43.30;;;;;;6289785;28;20029;-81
2021/05/29 14:47:36;;;;;;;2.27;2.07;;;22.40;43.20;;;;;;6267846;28;20382;-84
2021/05/29 14:50:49;;;;;;;3.67;2.60;;;22.70;42.30;;;;;;6304793;28;20056;-82
2021/05/29 14:53:54;;;;;;;3.83;2.40;;;22.40;44.50;;;;;;6276761;28;20024;-83
2021/05/29 14:56:54;;;;;;;2.95;2.33;;;22.20;43.00;;;;;;6272010;28;20078;-83
2021/05/29 14:59:55;;;;;;;3.58;2.20;;;22.30;44.50;;;;;;6272940;28;20457;-86
2021/05/29 15:02:56;;;;;;;5.93;2.47;;;22.30;44.80;;;;;;6310112;28;20032;-82
2021/05/29 15:05:56;;;;;;;4.03;2.92;;;22.40;45.50;;;;;;6277595;28;20389;-82
2021/05/29 15:08:57;;;;;;;2.97;2.33;;;22.20;44.50;;;;;;6276533;28;20458;-84
2021/05/29 15:11:58;;;;;;;2.67;2.47;;;22.10;45.90;;;;;;6269999;28;20394;-79
2021/05/29 15:14:58;;;;;;;2.35;2.20;;;22.10;44.70;;;;;;6306411;28;20711;-81
2021/05/29 15:17:59;;;;;;;3.50;2.08;;;22.50;58.60;;;;;;6294337;28;20036;-80
2021/05/29 15:24:16;;;;;;;2.30;2.10;;;22.70;44.10;;;;;;6286251;28;20036;-80
2021/05/29 15:27:17;;;;;;;3.42;2.50;;;23.00;43.60;;;;;;6296368;28;20016;-83
2021/05/29 15:30:21;;;;;;;3.60;2.50;;;22.60;44.40;;;;;;6278287;28;20035;-87
2021/05/29 15:33:22;;;;;;;4.00;2.90;;;22.50;45.70;;;;;;6275941;28;20079;-87
2021/05/29 15:36:23;;;;;;;2.80;2.50;;;;;;;;;;6270381;28;20036;-83
2021/05/29 15:39:34;;;;;;;3.67;2.63;;;22.80;42.80;;;;;;6303832;28;20072;-88
2021/05/29 15:42:34;;;;;;;2.58;2.38;;;22.70;44.10;;;;;;6275448;28;20086;-87
2021/05/29 15:45:37;;;;;;;3.10;2.25;;;22.80;44.00;;;;;;6273458;28;20032;-83
2021/05/29 15:48:40;;;;;;;3.55;2.45;;;22.80;41.80;;;;;;6284010;28;20035;-83
2021/05/29 15:51:40;;;;;;;3.08;2.78;;;22.70;43.80;;;;;;6266867;28;20123;-85
2021/05/29 15:54:41;;;;;;;2.45;2.22;;;23.40;43.50;;;;;;6292307;28;20077;-83
2021/05/29 15:57:42;;;;;;;5.93;2.40;;;22.70;43.90;;;;;;6314752;28;20478;-79
2021/05/29 16:00:42;;;;;;;4.28;2.65;;;23.00;44.30;;;;;;6270384;28;20037;-87
2021/05/29 16:03:43;;;;;;;2.43;2.23;;;23.00;42.70;;;;;;6287906;28;20034;-85
2021/05/29 16:06:45;;;;;;;3.07;2.80;;;23.00;42.50;;;;;;6295311;28;20123;-89
2021/05/29 16:09:46;;;;;;;2.67;2.38;;;23.00;42.50;;;;;;6293090;28;20082;-81
2021/05/29 16:12:46;;;;;;;2.65;2.33;;;22.80;44.80;;;;;;6251150;28;20037;-87
2021/05/29 16:15:47;;;;;;;2.95;2.67;;;22.50;43.70;;;;;;6277630;28;20074;-83
2021/05/29 16:18:48;;;;;;;2.92;2.63;;;22.30;44.50;;;;;;6268554;28;20028;-83
2021/05/29 16:21:48;;;;;;;4.53;2.60;;;22.10;44.50;;;;;;6266418;28;20040;-86
2021/05/29 16:24:49;;;;;;;4.07;2.40;;;22.00;43.80;;;;;;6272453;28;20062;-82
2021/05/29 16:27:50;;;;;;;3.45;2.70;;;21.80;44.90;;;;;;6312314;28;20455;-82
2021/05/29 16:30:50;;;;;;;5.65;3.15;;;21.70;44.40;;;;;;6294000;28;20032;-82
2021/05/29 16:33:52;;;;;;;3.15;2.30;;;21.60;44.60;;;;;;6273695;28;20060;-81
2021/05/29 16:36:52;;;;;;;2.70;2.50;;;21.50;44.10;;;;;;6291198;28;20375;-80
2021/05/29 16:39:53;;;;;;;3.38;2.50;;;21.40;45.10;;;;;;6290854;28;20102;-79
2021/05/29 16:42:54;;;;;;;4.10;2.40;;;21.10;46.10;;;;;;6291579;28;20488;-79
2021/05/29 16:45:55;;;;;;;5.03;2.67;;;20.90;47.70;;;;;;6290948;28;20107;-76
2021/05/29 16:48:56;;;;;;;2.47;2.28;;;20.90;49.70;;;;;;6306247;28;20032;-81
2021/05/29 16:51:56;;;;;;;3.47;2.63;;;21.00;47.40;;;;;;6305609;28;20025;-76
2021/05/29 16:54:57;;;;;;;2.63;2.40;;;20.90;47.60;;;;;;6293243;28;20029;-77
2021/05/29 16:57:57;;;;;;;4.07;3.08;;;20.80;49.50;;;;;;6296996;28;20028;-76
2021/05/29 17:00:58;;;;;;;5.90;2.90;;;20.70;51.50;;;;;;6312941;28;20036;-77
2021/05/29 17:03:59;;;;;;;2.90;2.55;;;20.70;48.70;;;;;;6290614;28;20025;-77
2021/05/29 17:07:00;;;;;;;7.22;4.25;;;20.70;47.10;;;;;;6293763;28;20497;-78
2021/05/29 17:10:00;;;;;;;3.75;2.50;;;20.80;47.50;;;;;;6300140;28;20043;-78
2021/05/29 17:13:01;;;;;;;2.92;2.33;;;20.80;48.00;;;;;;6300280;28;20021;-76
2021/05/29 17:16:02;;;;;;;2.50;2.30;;;20.80;45.00;;;;;;6291300;28;20043;-76
2021/05/29 17:19:03;;;;;;;3.70;2.60;;;20.80;46.40;;;;;;6279023;28;20039;-77
2021/05/29 17:22:04;;;;;;;3.15;2.50;;;20.80;46.70;;;;;;6305553;28;20500;-76
2021/05/29 17:25:05;;;;;;;2.35;2.15;;;20.70;47.70;;;;;;6306592;28;20028;-76
2021/05/29 17:28:05;;;;;;;3.35;2.90;;;20.60;47.50;;;;;;6320988;28;20492;-76
2021/05/29 17:31:06;;;;;;;2.67;2.40;;;20.60;47.20;;;;;;6319783;28;20024;-78